Time;durP1;ratioP1;P1;durP2;ratioP2;P2;SDS_P1;SDS_P2;PMS_P1;PMS_P2;Temp;Humidity;BMP_temperature;BMP_pressure;BME280_temperature;BME280_humidity;BME280_pressure;Samples;Min_cycle;Max_cycle;Signal;HPM_P1;HPM_P2
2022/06/04 00:01:44;;;;;;;4.28;2.92;;;;;;;26.36;47.06;101984.95;1767688;81;20999;-50
2022/06/04 00:04:13;;;;;;;3.25;2.98;;;;;;;26.32;46.78;101984.31;1766595;80;21007;-50
2022/06/04 00:06:41;;;;;;;4.45;2.70;;;;;;;26.29;46.70;101981.88;1773569;80;20998;-49
2022/06/04 00:09:09;;;;;;;3.10;2.80;;;;;;;26.28;46.62;101985.95;1766222;80;21132;-48
2022/06/04 00:17:13;;;;;;;3.25;2.65;;;;;;;26.26;46.26;101985.20;1783569;80;21006;-46
2022/06/04 00:19:41;;;;;;;3.77;2.98;;;;;;;26.22;45.76;101985.90;1781468;80;21018;-48
2022/06/04 00:22:10;;;;;;;3.08;2.80;;;;;;;26.20;45.92;101978.95;1776173;80;20986;-50
2022/06/04 00:24:37;;;;;;;2.80;2.60;;;;;;;26.18;45.85;101968.39;1769925;80;21039;-46
2022/06/04 00:27:05;;;;;;;3.58;2.52;;;;;;;26.18;45.28;101976.86;1783287;80;21467;-47
2022/06/04 00:29:33;;;;;;;3.58;2.30;;;;;;;26.15;44.56;101970.42;1773388;80;21003;-49
2022/06/04 00:31:59;;;;;;;4.00;2.75;;;;;;;26.12;44.29;101965.27;1772854;80;21460;-47
2022/06/04 00:34:26;;;;;;;3.00;2.70;;;;;;;26.10;44.19;101967.19;1773633;80;20982;-46
2022/06/04 00:36:54;;;;;;;3.35;2.60;;;;;;;26.06;44.19;101965.66;1772302;80;21062;-47
2022/06/04 00:39:21;;;;;;;4.05;2.70;;;;;;;26.04;44.10;101963.57;1775328;80;21510;-49
2022/06/04 00:42:00;;;;;;;3.02;2.83;;;;;;;26.02;43.94;101965.48;1773572;80;20998;-47
2022/06/04 00:44:35;;;;;;;4.75;2.40;;;;;;;26.00;43.95;101966.07;1766674;80;21018;-50
2022/06/04 00:47:13;;;;;;;2.45;2.25;;;;;;;25.98;43.98;101967.98;1781247;80;21010;-48
2022/06/04 00:49:40;;;;;;;3.15;2.72;;;;;;;25.94;43.88;101970.48;1774706;80;21014;-51
2022/06/04 00:52:12;;;;;;;3.30;2.62;;;;;;;25.91;43.72;101966.20;1779946;80;21014;-47
2022/06/04 00:54:41;;;;;;;3.72;2.47;;;;;;;25.90;43.48;101956.98;1780885;80;20994;-49
2022/06/04 00:57:31;;;;;;;4.53;2.60;;;;;;;25.88;43.38;101957.56;1780501;80;20982;-50
2022/06/04 01:03:08;;;;;;;3.27;2.85;;;;;;;25.81;43.20;101945.97;1576605;90;21096;-48
2022/06/04 01:06:01;;;;;;;4.87;2.40;;;;;;;25.78;43.27;101950.16;1575522;90;21055;-48
2022/06/04 01:08:50;;;;;;;3.10;2.80;;;;;;;25.75;43.43;101950.84;1575414;90;21020;-48
2022/06/04 01:12:09;;;;;;;6.30;3.22;;;;;;;25.71;43.77;101944.88;1556014;91;21108;-49
2022/06/04 01:14:23;;;;;;;2.90;2.65;;;;;;;25.69;44.13;101937.92;1554865;91;21071;-52
2022/06/04 01:17:01;;;;;;;5.80;3.00;;;;;;;25.67;44.57;101935.37;1556074;91;21643;-50
2022/06/04 01:19:52;;;;;;;5.17;2.60;;;;;;;25.64;45.02;101931.56;1555867;91;21031;-48
2022/06/04 01:23:00;;;;;;;2.75;2.55;;;;;;;25.63;45.61;101929.86;1566092;91;21047;-48
2022/06/04 01:25:41;;;;;;;3.70;2.60;;;;;;;25.60;46.15;101935.38;1569334;91;21053;-51
2022/06/04 01:28:10;;;;;;;4.67;3.22;;;;;;;25.58;46.37;101931.97;1564591;91;21553;-50
2022/06/04 01:30:44;;;;;;;3.37;2.37;;;;;;;25.58;46.65;101934.63;1560808;91;21118;-48
2022/06/04 01:33:37;;;;;;;4.12;2.85;;;;;;;25.56;46.95;101932.55;1570684;91;21026;-50
2022/06/04 01:36:16;;;;;;;3.17;2.75;;;;;;;25.56;47.12;101924.55;1579804;88;21092;-48
2022/06/04 01:38:49;;;;;;;5.80;2.67;;;;;;;25.56;47.23;101927.21;1619732;88;21072;-48
2022/06/04 01:41:22;;;;;;;7.20;3.72;;;;;;;25.57;47.50;101930.27;1591758;90;21070;-52
2022/06/04 01:43:57;;;;;;;3.40;2.77;;;;;;;25.57;47.67;101920.94;1623142;88;21529;-47
2022/06/04 01:46:31;;;;;;;3.55;3.25;;;;;;;25.57;47.83;101912.08;1577354;90;21591;-48
2022/06/04 01:49:11;;;;;;;4.50;2.70;;;;;;;25.54;47.98;101917.13;1577074;90;21139;-46
2022/06/04 01:51:39;;;;;;;3.07;2.63;;;;;;;25.54;48.03;101914.47;1575641;90;21102;-49
2022/06/04 01:54:24;;;;;;;5.33;3.08;;;;;;;25.52;48.09;101912.38;1582633;90;21067;-47
2022/06/04 01:56:55;;;;;;;3.47;2.87;;;;;;;25.50;48.31;101904.96;1525821;93;21137;-48
2022/06/04 01:59:39;;;;;;;2.70;2.50;;;;;;;25.48;48.45;101910.88;1536917;92;21581;-47
2022/06/04 02:02:09;;;;;;;3.10;2.83;;;;;;;25.48;48.50;101914.87;1546351;92;21048;-47
2022/06/04 02:04:38;;;;;;;4.50;3.25;;;;;;;25.47;48.67;101919.80;1549390;92;21627;-48
2022/06/04 02:09:56;;;;;;;3.08;2.77;;;;;;;25.46;48.95;101915.45;1557699;91;21090;-47
2022/06/04 02:12:23;;;;;;;3.08;2.77;;;;;;;25.42;49.05;101909.94;1580380;91;21551;-48
2022/06/04 02:14:50;;;;;;;3.62;2.70;;;;;;;25.45;49.19;101915.56;1580402;91;21126;-48
2022/06/04 02:17:22;;;;;;;3.77;2.90;;;;;;;25.41;49.25;101914.87;1580268;91;21081;-47
2022/06/04 02:19:48;;;;;;;3.05;2.52;;;;;;;25.41;49.46;101922.88;1580244;91;21022;-51
2022/06/04 02:22:16;;;;;;;4.28;2.50;;;;;;;25.37;49.38;101924.00;1580404;91;21098;-48
2022/06/04 02:24:43;;;;;;;3.87;2.77;;;;;;;25.35;49.47;101923.24;1587030;89;21096;-52
2022/06/04 02:27:10;;;;;;;3.62;2.60;;;;;;;25.34;49.51;101924.68;1588266;89;21040;-51
2022/06/04 02:29:37;;;;;;;7.37;2.42;;;;;;;25.32;49.66;101926.59;1586521;90;21028;-49
2022/06/04 02:32:25;;;;;;;5.00;3.20;;;;;;;25.31;49.75;101929.72;1587896;89;21052;-48
2022/06/04 02:35:04;;;;;;;7.10;3.22;;;;;;;25.28;49.78;101928.61;1622859;87;21204;-49
2022/06/04 02:38:02;;;;;;;4.78;3.15;;;;;;;25.29;49.95;101922.31;1582932;90;21564;-49
2022/06/04 02:40:43;;;;;;;4.90;3.50;;;;;;;25.30;49.68;101925.37;1584698;90;21092;-48
2022/06/04 02:43:18;;;;;;;3.87;2.87;;;;;;;25.30;49.74;101925.37;1584388;90;21613;-48
2022/06/04 02:45:52;;;;;;;2.70;2.50;;;;;;;25.30;49.83;101925.84;1582327;90;21096;-47
2022/06/04 02:48:36;;;;;;;6.65;2.75;;;;;;;25.28;49.92;101924.61;1584455;90;21082;-49
2022/06/04 02:51:17;;;;;;;3.77;2.60;;;;;;;25.30;50.04;101924.50;1583547;90;21061;-47
2022/06/04 02:53:44;;;;;;;3.70;2.62;;;;;;;25.30;50.10;101924.03;1637343;86;21070;-48
2022/06/04 02:56:20;;;;;;;3.22;2.72;;;;;;;25.32;50.11;101926.13;1660644;86;21137;-48
2022/06/04 02:58:49;;;;;;;2.80;2.50;;;;;;;25.32;50.28;101918.13;1626810;88;21050;-49
2022/06/04 03:01:16;;;;;;;3.37;2.65;;;;;;;25.33;50.28;101922.48;1626951;88;21045;-48
2022/06/04 03:03:43;;;;;;;3.37;2.83;;;;;;;25.34;50.14;101924.21;1626298;88;21091;-48
2022/06/04 03:06:24;;;;;;;4.45;2.70;;;;;;;25.33;50.07;101925.16;1627250;88;21059;-51
2022/06/04 03:08:51;;;;;;;4.13;2.77;;;;;;;25.31;50.00;101923.06;1626645;88;21545;-50
2022/06/04 03:11:18;;;;;;;4.60;3.10;;;;;;;25.29;50.11;101926.30;1636200;87;21590;-51
2022/06/04 03:13:45;;;;;;;4.05;2.47;;;;;;;25.29;50.10;101927.64;1639278;87;21047;-47
2022/06/04 03:16:14;;;;;;;4.05;2.47;;;;;;;25.26;50.05;101920.33;1633516;87;21030;-47
2022/06/04 03:18:43;;;;;;;6.47;2.60;;;;;;;25.26;50.07;101917.66;1639553;87;21039;-49
2022/06/04 03:21:11;;;;;;;2.77;2.40;;;;;;;25.25;50.04;101918.60;1639196;87;21058;-47
2022/06/04 03:23:39;;;;;;;5.65;2.55;;;;;;;25.24;50.10;101916.91;1639358;87;22258;-48
2022/06/04 03:26:06;;;;;;;6.03;2.70;;;;;;;25.23;49.89;101916.05;1639668;87;21095;-47
2022/06/04 03:28:33;;;;;;;3.25;2.92;;;;;;;25.24;49.99;101915.11;1639596;87;21090;-48
2022/06/04 03:31:00;;;;;;;2.90;2.40;;;;;;;25.26;49.98;101918.53;1639280;87;21073;-49
2022/06/04 03:33:28;;;;;;;2.45;2.00;;;;;;;25.26;49.97;101918.53;1665829;81;21011;-47
2022/06/04 03:35:55;;;;;;;4.37;2.52;;;;;;;25.34;49.64;101923.35;1693009;84;21109;-50
2022/06/04 03:38:22;;;;;;;3.22;2.30;;;;;;;25.55;49.47;101925.52;1694350;85;21538;-48
2022/06/04 03:40:49;;;;;;;2.52;2.35;;;;;;;25.92;48.78;101923.92;1696362;84;21042;-49
2022/06/04 03:43:16;;;;;;;4.45;2.40;;;;;;;26.31;47.80;101928.39;1725492;83;21102;-47
2022/06/04 03:45:43;;;;;;;2.85;2.55;;;;;;;26.69;46.80;101920.39;1694680;84;21105;-48
2022/06/04 03:48:10;;;;;;;3.12;2.52;;;;;;;27.11;46.03;101917.33;1725830;83;21069;-49
2022/06/04 03:50:37;;;;;;;3.33;2.08;;;;;;;27.58;44.93;101913.86;1746742;82;21027;-48
2022/06/04 03:53:04;;;;;;;3.72;2.12;;;;;;;28.13;43.83;101910.11;1719732;83;21074;-48
2022/06/04 03:55:31;;;;;;;3.55;2.27;;;;;;;28.66;42.57;101918.86;1739331;82;21598;-49
2022/06/04 03:57:59;;;;;;;3.90;2.15;;;;;;;29.17;41.33;101910.30;1733461;82;21027;-52
2022/06/04 04:00:36;;;;;;;3.12;2.20;;;;;;;29.51;40.16;101902.55;1725600;83;20998;-51
2022/06/04 04:03:09;;;;;;;5.58;2.90;;;;;;;29.68;39.86;101903.31;1646642;86;21023;-48
2022/06/04 04:05:41;;;;;;;3.27;2.62;;;;;;;29.62;39.78;101903.83;1665788;86;21546;-49
2022/06/04 04:08:08;;;;;;;2.87;2.37;;;;;;;29.37;39.86;101910.86;1699458;84;21032;-47
2022/06/04 04:10:38;;;;;;;3.37;2.50;;;;;;;29.02;40.47;101906.17;1693495;84;21085;-46
2022/06/04 04:13:05;;;;;;;2.55;2.35;;;;;;;28.66;40.87;101905.47;1683111;85;21471;-46
2022/06/04 04:15:34;;;;;;;7.92;2.22;;;;;;;28.33;41.06;101891.16;1683915;85;21054;-48
2022/06/04 04:18:01;;;;;;;6.97;2.62;;;;;;;28.00;41.53;101899.97;1683748;85;21058;-48
2022/06/04 04:20:32;;;;;;;4.17;2.40;;;;;;;27.73;41.93;101904.23;1683787;85;21098;-48
2022/06/04 04:22:59;;;;;;;7.03;2.72;;;;;;;27.46;42.20;101906.77;1683969;85;21566;-47
2022/06/04 04:25:28;;;;;;;3.90;2.77;;;;;;;27.24;42.71;101906.96;1684019;85;21011;-47
2022/06/04 04:27:56;;;;;;;5.70;2.50;;;;;;;27.04;43.06;101907.56;1684036;85;22296;-47
2022/06/04 04:30:27;;;;;;;3.90;2.25;;;;;;;26.87;43.35;101915.96;1684321;85;21054;-49
2022/06/04 04:32:54;;;;;;;2.52;2.25;;;;;;;26.70;43.96;101925.61;1683924;85;21046;-52
2022/06/04 04:35:26;;;;;;;3.20;2.12;;;;;;;26.54;44.51;101928.98;1684101;85;21051;-47
2022/06/04 04:37:53;;;;;;;7.08;2.30;;;;;;;26.41;44.60;101929.45;1683969;85;20979;-48
2022/06/04 04:40:22;;;;;;;6.35;2.40;;;;;;;26.32;44.63;101944.75;1733888;81;21066;-48
2022/06/04 04:42:49;;;;;;;6.05;2.60;;;;;;;26.24;44.86;101935.95;1761623;81;21012;-48
2022/06/04 04:45:18;;;;;;;3.75;2.55;;;;;;;26.18;44.96;101946.18;1761529;81;21011;-48
2022/06/04 04:47:46;;;;;;;5.10;2.95;;;;;;;26.13;45.19;101955.00;1764012;81;20952;-48
2022/06/04 04:50:34;;;;;;;4.97;2.80;;;;;;;26.11;45.60;101959.58;1767655;81;21535;-48
2022/06/04 04:53:03;;;;;;;4.75;2.65;;;;;;;26.07;45.47;101950.91;1776244;81;20975;-48
2022/06/04 04:55:32;;;;;;;4.50;2.37;;;;;;;26.04;45.22;101948.91;1764545;81;20999;-47
2022/06/04 04:58:00;;;;;;;4.12;2.40;;;;;;;26.03;45.30;101953.88;1769318;80;21066;-49
2022/06/04 05:00:26;;;;;;;4.05;2.62;;;;;;;26.03;45.50;101944.54;1765365;81;21054;-48
2022/06/04 05:02:53;;;;;;;3.47;2.77;;;;;;;26.04;45.64;101962.23;1761973;80;21538;-48
2022/06/04 05:05:21;;;;;;;2.95;2.67;;;;;;;26.09;45.77;101960.16;1774563;80;21034;-48
2022/06/04 05:07:47;;;;;;;3.02;2.33;;;;;;;26.20;45.39;101973.61;1765568;81;21027;-47
2022/06/04 05:10:14;;;;;;;4.75;2.40;;;;;;;26.35;44.84;101981.92;1766162;81;21020;-48
2022/06/04 05:12:41;;;;;;;6.55;3.40;;;;;;;26.48;44.74;101984.97;1768038;81;21605;-49
2022/06/04 05:15:09;;;;;;;2.83;2.60;;;;;;;26.65;44.78;101988.31;1770304;81;21008;-50
2022/06/04 05:17:37;;;;;;;4.22;2.58;;;;;;;26.81;44.36;101989.81;1770486;81;21058;-47
2022/06/04 05:20:06;;;;;;;2.77;2.37;;;;;;;27.03;43.93;101988.69;1770205;81;21062;-49
2022/06/04 05:22:33;;;;;;;4.75;2.90;;;;;;;27.24;43.25;101996.48;1772500;81;21007;-48
2022/06/04 05:25:00;;;;;;;3.12;2.83;;;;;;;27.45;42.82;101987.94;1770409;81;21062;-48
2022/06/04 05:27:27;;;;;;;5.30;2.60;;;;;;;27.62;42.29;101992.89;1770576;81;21047;-48
2022/06/04 05:29:53;;;;;;;2.58;2.37;;;;;;;27.74;41.93;101983.98;1767057;81;20974;-49
2022/06/04 05:32:20;;;;;;;3.47;2.58;;;;;;;27.85;41.52;101989.37;1766233;81;21022;-51
2022/06/04 05:34:47;;;;;;;3.25;2.90;;;;;;;27.93;41.33;101992.33;1770645;81;21018;-48
2022/06/04 05:37:14;;;;;;;2.90;2.70;;;;;;;27.96;41.36;101989.47;1765975;81;20995;-53
2022/06/04 05:39:41;;;;;;;2.85;2.55;;;;;;;28.00;41.01;101985.59;1772118;81;21114;-48
2022/06/04 05:42:10;;;;;;;6.05;2.77;;;;;;;28.07;40.89;101994.84;1766208;81;21011;-48
2022/06/04 05:44:37;;;;;;;2.92;2.62;;;;;;;28.14;40.62;101990.75;1766330;81;21419;-47
2022/06/04 05:47:04;;;;;;;3.33;2.85;;;;;;;28.16;40.48;101986.14;1771694;81;20991;-48
2022/06/04 05:49:31;;;;;;;3.92;2.65;;;;;;;28.17;40.67;101993.21;1765655;81;21015;-50
2022/06/04 05:51:58;;;;;;;4.55;3.08;;;;;;;28.22;40.54;101991.02;1766855;81;20991;-49
2022/06/04 05:54:26;;;;;;;4.35;2.90;;;;;;;28.27;40.64;101991.54;1766888;81;21002;-50
2022/06/04 05:56:52;;;;;;;3.20;2.90;;;;;;;28.34;40.36;101990.08;1767953;81;21038;-49
2022/06/04 05:59:21;;;;;;;4.83;2.90;;;;;;;28.42;39.90;101990.34;1767959;81;20987;-48
2022/06/04 06:01:49;;;;;;;5.03;2.72;;;;;;;28.54;39.84;101993.41;1770229;81;21054;-48
2022/06/04 06:04:17;;;;;;;5.78;2.83;;;;;;;28.70;39.67;101997.13;1766532;81;21030;-50
2022/06/04 06:06:47;;;;;;;3.72;3.00;;;;;;;28.90;39.53;101999.95;1767028;81;21519;-49
2022/06/04 06:09:16;;;;;;;5.05;3.02;;;;;;;29.14;39.26;102013.73;1762706;81;21022;-45
2022/06/04 06:11:43;;;;;;;5.75;2.75;;;;;;;29.36;38.86;102012.41;1772994;80;21010;-47
2022/06/04 06:14:11;;;;;;;3.45;2.87;;;;;;;29.55;38.41;102014.80;1789666;80;21025;-46
2022/06/04 06:16:43;;;;;;;3.17;2.67;;;;;;;29.77;38.03;102012.59;1776165;80;20998;-48
2022/06/04 06:19:11;;;;;;;3.47;2.52;;;;;;;30.01;37.77;102012.38;1784644;80;21007;-50
2022/06/04 06:21:39;;;;;;;2.80;2.60;;;;;;;30.28;37.44;102013.60;1785588;80;21006;-50
2022/06/04 06:24:08;;;;;;;4.10;2.95;;;;;;;30.60;36.79;102016.76;1790827;80;21045;-46
2022/06/04 06:26:45;;;;;;;2.85;2.47;;;;;;;30.92;36.08;102017.53;1786338;80;21013;-48
2022/06/04 06:29:12;;;;;;;3.25;2.42;;;;;;;31.29;35.37;102020.02;1765702;80;21061;-46
2022/06/04 06:31:39;;;;;;;2.77;2.25;;;;;;;31.65;34.51;102019.95;1779132;80;21022;-47
2022/06/04 06:34:06;;;;;;;3.22;2.60;;;;;;;31.92;33.96;102013.41;1775996;80;21049;-46
2022/06/04 06:36:33;;;;;;;2.65;2.20;;;;;;;32.06;33.59;102015.22;1784779;80;21561;-46
2022/06/04 06:39:01;;;;;;;2.30;2.10;;;;;;;32.06;33.42;102007.14;1788735;80;21022;-47
2022/06/04 06:41:28;;;;;;;3.35;2.40;;;;;;;31.99;33.43;102005.99;1779848;80;21541;-47
2022/06/04 06:43:55;;;;;;;2.30;2.12;;;;;;;31.89;33.42;102003.77;1777613;80;21017;-46
2022/06/04 06:46:35;;;;;;;5.47;2.67;;;;;;;31.78;33.61;102001.19;1781670;80;20975;-47
2022/06/04 06:49:07;;;;;;;76.07;7.50;;;;;;;31.67;33.53;102001.34;1785013;80;21014;-47
2022/06/04 06:51:41;;;;;;;8.63;2.65;;;;;;;31.58;33.58;101996.77;1789136;80;20995;-46
2022/06/04 06:54:09;;;;;;;6.25;2.85;;;;;;;31.49;33.90;101998.94;1782227;80;21065;-45
2022/06/04 06:56:38;;;;;;;4.90;2.62;;;;;;;31.43;34.33;101995.46;1784320;80;21061;-47
2022/06/04 06:59:05;;;;;;;3.08;2.55;;;;;;;31.34;34.38;101993.58;1774795;80;21514;-49
2022/06/04 07:01:34;;;;;;;2.30;2.10;;;;;;;31.28;34.70;101984.72;1775330;80;21006;-49
2022/06/04 07:04:02;;;;;;;2.58;2.35;;;;;;;31.29;34.65;101983.23;1770972;80;21053;-46
2022/06/04 07:06:34;;;;;;;3.08;2.22;;;;;;;31.40;34.75;101989.03;1779026;80;21035;-46
2022/06/04 07:09:22;;;;;;;6.85;2.90;;;;;;;31.64;34.67;101989.98;1660057;85;21090;-47
2022/06/04 07:11:49;;;;;;;2.47;2.27;;;;;;;31.85;34.11;101983.50;1646738;85;21661;-48
2022/06/04 07:14:18;;;;;;;2.40;2.20;;;;;;;32.00;33.78;101990.20;1632080;87;21122;-48
2022/06/04 07:16:45;;;;;;;4.05;2.50;;;;;;;32.08;33.65;101995.73;1632461;87;21082;-48
2022/06/04 07:19:13;;;;;;;2.60;2.22;;;;;;;32.17;33.74;102002.08;1632198;88;21559;-47
2022/06/04 07:21:41;;;;;;;6.12;2.40;;;;;;;32.29;33.63;102000.10;1632515;88;21090;-50
2022/06/04 07:24:08;;;;;;;2.72;2.22;;;;;;;32.44;33.40;102003.54;1595965;90;21502;-51
2022/06/04 07:26:35;;;;;;;2.70;2.50;;;;;;;32.59;33.25;102001.27;1632387;86;21030;-50
2022/06/04 07:29:02;;;;;;;2.35;2.12;;;;;;;32.66;32.89;102002.41;1601403;90;21085;-49
2022/06/04 07:31:29;;;;;;;3.08;2.40;;;;;;;32.72;32.88;101997.77;1632155;88;21063;-48
2022/06/04 07:33:58;;;;;;;2.60;2.47;;;;;;;32.78;32.72;101995.84;1632410;87;21066;-50
2022/06/04 07:36:35;;;;;;;2.62;2.40;;;;;;;32.78;32.56;101991.80;1596184;88;21094;-48
2022/06/04 07:39:05;;;;;;;3.25;2.67;;;;;;;32.73;32.58;101984.63;1625187;88;21623;-48
2022/06/04 07:41:38;;;;;;;3.02;2.83;;;;;;;32.65;32.70;101987.21;1632465;88;21034;-50
2022/06/04 07:44:06;;;;;;;3.55;3.02;;;;;;;32.56;32.82;101971.94;1636317;88;21173;-48
2022/06/04 07:46:33;;;;;;;3.20;2.83;;;;;;;32.46;33.07;101979.20;1636021;88;21046;-45
2022/06/04 07:49:01;;;;;;;3.47;3.02;;;;;;;32.34;33.12;101969.52;1636310;88;21090;-48
2022/06/04 07:51:29;;;;;;;3.08;2.70;;;;;;;32.24;33.43;101961.95;1630051;87;21168;-49
2022/06/04 07:53:55;;;;;;;2.98;2.62;;;;;;;32.14;33.67;101958.44;1631071;86;21010;-51
2022/06/04 07:56:23;;;;;;;3.15;2.77;;;;;;;32.05;33.85;101960.99;1635108;87;21033;-49
2022/06/04 07:58:50;;;;;;;3.10;2.90;;;;;;;31.94;33.96;101955.74;1635275;87;21078;-48
2022/06/04 08:01:20;;;;;;;2.85;2.60;;;;;;;31.84;33.75;101950.83;1635521;87;22100;-49
2022/06/04 08:03:47;;;;;;;3.25;2.52;;;;;;;31.76;34.10;101953.87;1628320;87;21602;-50
2022/06/04 08:06:17;;;;;;;2.85;2.65;;;;;;;31.68;34.21;101958.62;1663826;85;21019;-50
2022/06/04 08:08:47;;;;;;;6.12;3.40;;;;;;;31.62;34.01;101955.14;1672044;85;21014;-50
2022/06/04 08:11:32;;;;;;;3.65;2.77;;;;;;;31.58;34.14;101963.14;1673304;85;21042;-50
2022/06/04 08:14:16;;;;;;;4.75;2.67;;;;;;;31.54;34.13;101964.41;1673203;85;21031;-49
2022/06/04 08:16:46;;;;;;;6.67;2.60;;;;;;;31.50;33.65;101958.95;1668515;85;21042;-50
2022/06/04 08:19:16;;;;;;;2.62;2.42;;;;;;;31.47;33.75;101957.88;1610377;87;21642;-49
2022/06/04 08:21:44;;;;;;;2.50;2.30;;;;;;;31.45;33.91;101960.38;1630061;87;21087;-50
2022/06/04 08:24:12;;;;;;;2.40;2.20;;;;;;;31.40;33.95;101961.27;1619814;88;21129;-49
2022/06/04 08:26:45;;;;;;;2.98;2.60;;;;;;;31.34;34.19;101968.03;1670404;85;21594;-51
2022/06/04 08:29:15;;;;;;;4.80;2.35;;;;;;;31.29;34.22;101960.86;1673532;85;21030;-49
2022/06/04 08:31:41;;;;;;;2.85;2.37;;;;;;;31.26;34.33;101959.28;1667527;85;21648;-50
2022/06/04 08:34:08;;;;;;;3.70;2.47;;;;;;;31.28;34.53;101960.00;1668002;85;21018;-50
2022/06/04 08:36:36;;;;;;;2.55;2.25;;;;;;;31.27;34.49;101954.27;1662839;85;21064;-51
2022/06/04 08:39:03;;;;;;;5.37;2.70;;;;;;;31.30;34.65;101952.64;1655459;86;21514;-50
2022/06/04 08:41:52;;;;;;;2.40;2.17;;;;;;;31.33;34.45;101951.52;1713013;83;21066;-54
2022/06/04 08:44:37;;;;;;;4.62;2.50;;;;;;;31.36;34.40;101943.19;1726795;83;20987;-50
2022/06/04 08:47:22;;;;;;;3.58;2.77;;;;;;;31.39;34.06;101942.06;1715748;81;21558;-51
2022/06/04 08:50:19;;;;;;;8.03;2.70;;;;;;;31.36;34.22;101936.47;1723367;81;21007;-49
2022/06/04 08:52:52;;;;;;;2.47;2.27;;;;;;;31.35;34.08;101927.20;1722266;83;21028;-48
2022/06/04 08:58:58;;;;;;;4.53;2.72;;;;;;;31.31;33.92;101915.84;1618819;87;21141;-52
2022/06/04 09:01:38;;;;;;;2.72;2.50;;;;;;;31.31;34.16;101916.70;1617862;87;21161;-50
2022/06/04 09:04:36;;;;;;;2.72;2.52;;;;;;;31.33;33.64;101919.24;1622460;87;21093;-50
2022/06/04 09:07:11;;;;;;;3.02;2.83;;;;;;;31.30;33.63;101916.85;1623059;87;21114;-49
2022/06/04 09:10:01;;;;;;;2.65;2.45;;;;;;;31.23;33.94;101913.00;1620083;87;21057;-51
2022/06/04 09:12:47;;;;;;;2.60;2.40;;;;;;;31.17;33.74;101911.73;1614913;86;21645;-51
2022/06/04 09:15:38;;;;;;;4.70;2.30;;;;;;;31.10;34.07;101911.91;1606642;88;21646;-50
2022/06/04 09:18:24;;;;;;;2.47;2.25;;;;;;;31.03;34.07;101907.23;1623188;88;21113;-50
2022/06/04 09:20:59;;;;;;;3.47;2.65;;;;;;;30.93;34.06;101907.70;1531296;92;21107;-50
2022/06/04 09:23:37;;;;;;;2.58;2.27;;;;;;;30.90;34.42;101911.98;1529791;94;21079;-51
2022/06/04 09:26:27;;;;;;;5.05;2.90;;;;;;;30.90;33.90;101903.92;1525409;94;21154;-51
2022/06/04 09:29:12;;;;;;;2.47;2.30;;;;;;;30.93;33.75;101910.38;1517656;93;21157;-51
2022/06/04 09:32:14;;;;;;;2.20;2.00;;;;;;;30.96;32.89;101901.55;1526416;93;21180;-50
2022/06/04 09:34:48;;;;;;;4.25;1.92;;;;;;;30.98;32.72;101897.37;1526245;93;21168;-48
2022/06/04 09:37:15;;;;;;;3.35;1.87;;;;;;;30.99;32.31;101891.02;1500969;94;21143;-49
2022/06/04 09:39:45;;;;;;;6.97;2.20;;;;;;;31.00;31.69;101881.95;1529714;93;21081;-48
2022/06/04 09:42:22;;;;;;;2.90;1.80;;;;;;;31.04;32.18;101884.72;1511860;93;21679;-51
2022/06/04 09:45:03;;;;;;;3.25;2.05;;;;;;;31.06;31.47;101884.08;1527916;93;21101;-49
2022/06/04 09:47:40;;;;;;;2.35;1.77;;;;;;;31.10;31.39;101886.36;1526995;93;21096;-50
2022/06/04 09:50:33;;;;;;;2.75;1.90;;;;;;;31.16;31.15;101882.30;1528138;93;21073;-49
2022/06/04 09:53:08;;;;;;;2.47;1.90;;;;;;;31.22;30.81;101872.33;1562821;90;21148;-47
2022/06/04 09:55:35;;;;;;;2.00;1.77;;;;;;;31.27;30.95;101868.70;1568989;90;21777;-50
2022/06/04 09:58:07;;;;;;;2.80;2.00;;;;;;;31.31;31.18;101870.13;1603748;85;21594;-49
2022/06/04 10:00:35;;;;;;;1.90;1.80;;;;;;;31.34;30.93;101860.44;1671610;85;21044;-50
2022/06/04 10:03:16;;;;;;;3.62;2.02;;;;;;;31.40;30.53;101861.26;1679548;85;21487;-51
2022/06/04 10:05:53;;;;;;;3.17;1.73;;;;;;;31.46;30.61;101851.77;1680697;85;21489;-51
2022/06/04 10:08:25;;;;;;;1.90;1.80;;;;;;;31.49;29.93;101852.32;1672386;84;21504;-48
2022/06/04 10:11:04;;;;;;;1.67;1.57;;;;;;;31.54;29.81;101852.76;1682728;85;21563;-52
2022/06/04 10:13:43;;;;;;;2.80;1.85;;;;;;;31.58;29.75;101851.48;1708522;81;21045;-51
2022/06/04 10:16:20;;;;;;;2.85;1.70;;;;;;;31.60;29.44;101854.88;1760736;81;21061;-49
2022/06/04 10:19:16;;;;;;;2.02;1.90;;;;;;;31.62;29.10;101849.34;1738675;81;21049;-49
2022/06/04 10:21:46;;;;;;;2.27;1.70;;;;;;;31.63;29.51;101853.27;1633942;86;21058;-51
2022/06/04 10:24:25;;;;;;;1.98;1.82;;;;;;;31.67;29.43;101851.98;1639578;86;21587;-52
2022/06/04 10:27:01;;;;;;;2.67;1.90;;;;;;;31.67;28.78;101849.30;1686446;84;21099;-51
2022/06/04 10:29:58;;;;;;;58.65;6.53;;;;;;;31.67;28.35;101843.91;1672189;84;21100;-50
2022/06/04 10:32:45;;;;;;;2.00;1.80;;;;;;;31.67;28.78;101842.56;1675252;84;21113;-51
2022/06/04 10:35:32;;;;;;;4.80;2.15;;;;;;;31.71;29.47;101852.53;1647966;86;21041;-49
2022/06/04 10:38:29;;;;;;;2.33;1.70;;;;;;;31.74;29.06;101843.67;1635115;86;21025;-49
2022/06/04 10:41:36;;;;;;;2.05;1.90;;;;;;;31.69;29.94;101836.55;1634728;86;21012;-52
2022/06/04 10:44:34;;;;;;;2.25;1.57;;;;;;;31.68;29.88;101835.31;1642714;86;21089;-52
2022/06/04 10:47:28;;;;;;;2.00;1.60;;;;;;;31.73;29.70;101835.27;1637738;86;21129;-50
2022/06/04 10:50:17;;;;;;;3.20;1.57;;;;;;;31.57;29.45;101829.62;1606748;88;21479;-51
2022/06/04 10:52:50;;;;;;;1.72;1.62;;;;;;;31.69;28.71;101829.81;1614450;88;21121;-50
2022/06/04 10:55:28;;;;;;;2.10;1.90;;;;;;;31.74;29.04;101834.25;1615813;88;21077;-50
2022/06/04 10:58:13;;;;;;;3.90;1.92;;;;;;;31.77;28.86;101827.25;1583259;89;21082;-49
2022/06/04 11:00:50;;;;;;;3.17;2.00;;;;;;;31.58;29.34;101831.30;1573800;90;21175;-49
2022/06/04 11:03:34;;;;;;;2.35;1.65;;;;;;;31.57;29.48;101832.80;1574792;90;21094;-50
2022/06/04 11:06:09;;;;;;;2.02;1.70;;;;;;;31.60;29.01;101827.11;1512146;93;21148;-52
2022/06/04 11:08:51;;;;;;;1.85;1.75;;;;;;;31.63;28.43;101822.80;1500343;94;21145;-51
2022/06/04 11:11:41;;;;;;;4.85;1.55;;;;;;;31.73;28.39;101819.60;1500422;94;21669;-50
2022/06/04 11:14:17;;;;;;;1.52;1.40;;;;;;;31.81;29.03;101823.28;1497783;94;21111;-53
2022/06/04 11:16:51;;;;;;;2.37;1.62;;;;;;;31.90;28.89;101825.08;1510039;93;21598;-51
2022/06/04 11:19:24;;;;;;;1.70;1.60;;;;;;;31.92;29.33;101817.70;1462030;97;21094;-51
2022/06/04 11:22:03;;;;;;;1.92;1.55;;;;;;;31.91;30.12;101809.78;1461804;97;21503;-50
2022/06/04 11:24:41;;;;;;;2.27;1.65;;;;;;;31.93;30.40;101815.91;1436004;97;21569;-51
2022/06/04 11:27:34;;;;;;;1.80;1.70;;;;;;;31.95;30.24;101814.77;1426939;99;21115;-49
2022/06/04 11:30:03;;;;;;;3.62;1.77;;;;;;;31.94;30.40;101815.75;1429398;99;21192;-49
2022/06/04 11:32:44;;;;;;;1.80;1.70;;;;;;;31.92;30.98;101812.33;1475329;95;21632;-50
2022/06/04 11:35:16;;;;;;;7.90;3.10;;;;;;;31.96;31.16;101813.77;1498055;94;21176;-49
2022/06/04 11:38:08;;;;;;;1.98;1.80;;;;;;;31.96;31.44;101805.69;1481675;95;21185;-52
2022/06/04 11:40:50;;;;;;;2.08;1.90;;;;;;;31.99;31.30;101812.14;1468354;96;21560;-51
2022/06/04 11:43:28;;;;;;;5.03;1.98;;;;;;;32.02;31.49;101805.12;1483788;96;21043;-49
2022/06/04 11:46:29;;;;;;;1.95;1.85;;;;;;;32.05;31.78;101804.82;1491567;95;21111;-49
2022/06/04 11:49:17;;;;;;;3.33;1.80;;;;;;;32.07;31.67;101800.14;1490762;94;21119;-49
2022/06/04 11:52:03;;;;;;;5.42;1.92;;;;;;;32.07;31.93;101794.75;1521816;93;21166;-52
2022/06/04 11:54:38;;;;;;;6.20;1.95;;;;;;;32.05;31.49;101790.01;1474522;97;21637;-52
2022/06/04 11:57:47;;;;;;;8.38;2.20;;;;;;;32.00;31.15;101783.38;1481748;96;21090;-55
2022/06/04 12:00:28;;;;;;;15.72;2.30;;;;;;;31.91;30.91;101778.83;1474472;97;21125;-51
2022/06/04 12:03:17;;;;;;;2.87;2.00;;;;;;;31.83;31.43;101776.88;1477777;95;21142;-54
2022/06/04 12:06:23;;;;;;;2.98;2.00;;;;;;;31.82;31.75;101779.20;1490940;96;21164;-52
2022/06/04 12:09:11;;;;;;;6.30;2.20;;;;;;;31.80;32.32;101770.42;1492968;96;21134;-49
2022/06/04 12:11:56;;;;;;;2.05;1.82;;;;;;;31.77;33.26;101773.42;1490414;94;21190;-49